sensor_id;sensor_type;location;lat;lon;timestamp;temperature;humidity
19258;DHT22;9763;48.780;9.212;2022-11-11T00:03:41;10.30;82.60
19258;DHT22;9763;48.780;9.212;2022-11-11T00:07:23;10.20;82.50
19258;DHT22;9763;48.780;9.212;2022-11-11T00:11:07;10.20;82.70
19258;DHT22;9763;48.780;9.212;2022-11-11T00:14:50;10.20;82.70
19258;DHT22;9763;48.780;9.212;2022-11-11T00:18:35;10.10;82.60
19258;DHT22;9763;48.780;9.212;2022-11-11T00:22:35;10.10;82.70
19258;DHT22;9763;48.780;9.212;2022-11-11T00:26:43;10.10;82.90
19258;DHT22;9763;48.780;9.212;2022-11-11T00:30:26;10.10;82.90
19258;DHT22;9763;48.780;9.212;2022-11-11T00:34:09;10.10;83.00
19258;DHT22;9763;48.780;9.212;2022-11-11T00:37:51;10.00;82.80
19258;DHT22;9763;48.780;9.212;2022-11-11T00:41:34;10.00;82.80
19258;DHT22;9763;48.780;9.212;2022-11-11T00:45:16;10.00;82.80
19258;DHT22;9763;48.780;9.212;2022-11-11T00:48:58;10.00;83.00
19258;DHT22;9763;48.780;9.212;2022-11-11T00:52:59;10.00;83.00
19258;DHT22;9763;48.780;9.212;2022-11-11T00:56:42;10.00;82.90
19258;DHT22;9763;48.780;9.212;2022-11-11T01:00:24;10.00;82.90
19258;DHT22;9763;48.780;9.212;2022-11-11T01:04:06;10.00;82.80
19258;DHT22;9763;48.780;9.212;2022-11-11T01:07:49;9.90;83.70
19258;DHT22;9763;48.780;9.212;2022-11-11T01:11:32;9.90;83.70
19258;DHT22;9763;48.780;9.212;2022-11-11T01:15:14;9.90;83.60
19258;DHT22;9763;48.780;9.212;2022-11-11T01:18:56;9.90;83.60
19258;DHT22;9763;48.780;9.212;2022-11-11T01:22:39;9.80;83.50
19258;DHT22;9763;48.780;9.212;2022-11-11T01:26:22;9.80;83.80
19258;DHT22;9763;48.780;9.212;2022-11-11T01:30:12;9.80;84.20
19258;DHT22;9763;48.780;9.212;2022-11-11T01:33:55;9.70;84.40
19258;DHT22;9763;48.780;9.212;2022-11-11T01:37:37;9.80;84.40
19258;DHT22;9763;48.780;9.212;2022-11-11T01:41:22;9.70;84.20
19258;DHT22;9763;48.780;9.212;2022-11-11T01:49:47;9.60;83.70
19258;DHT22;9763;48.780;9.212;2022-11-11T01:53:33;9.60;83.90
19258;DHT22;9763;48.780;9.212;2022-11-11T01:57:20;9.60;84.00
19258;DHT22;9763;48.780;9.212;2022-11-11T02:01:08;9.60;83.90
19258;DHT22;9763;48.780;9.212;2022-11-11T02:04:51;9.60;83.90
19258;DHT22;9763;48.780;9.212;2022-11-11T02:08:51;9.60;83.80
19258;DHT22;9763;48.780;9.212;2022-11-11T02:12:34;9.60;83.70
19258;DHT22;9763;48.780;9.212;2022-11-11T02:16:37;9.50;83.70
19258;DHT22;9763;48.780;9.212;2022-11-11T02:20:24;9.50;83.70
19258;DHT22;9763;48.780;9.212;2022-11-11T02:24:12;9.50;83.70
19258;DHT22;9763;48.780;9.212;2022-11-11T02:28:02;9.40;83.60
19258;DHT22;9763;48.780;9.212;2022-11-11T02:31:47;9.40;83.50
19258;DHT22;9763;48.780;9.212;2022-11-11T02:35:31;9.40;83.70
19258;DHT22;9763;48.780;9.212;2022-11-11T02:39:16;9.40;83.70
19258;DHT22;9763;48.780;9.212;2022-11-11T02:43:07;9.50;83.70
19258;DHT22;9763;48.780;9.212;2022-11-11T02:46:49;9.40;83.70
19258;DHT22;9763;48.780;9.212;2022-11-11T02:50:31;9.30;83.50
19258;DHT22;9763;48.780;9.212;2022-11-11T02:54:13;9.30;83.40
19258;DHT22;9763;48.780;9.212;2022-11-11T02:57:57;9.30;83.50
19258;DHT22;9763;48.780;9.212;2022-11-11T03:01:39;9.30;83.60
19258;DHT22;9763;48.780;9.212;2022-11-11T03:05:21;9.20;83.90
19258;DHT22;9763;48.780;9.212;2022-11-11T03:09:04;9.20;84.20
19258;DHT22;9763;48.780;9.212;2022-11-11T03:12:46;9.20;84.30
19258;DHT22;9763;48.780;9.212;2022-11-11T03:16:29;9.20;84.50
19258;DHT22;9763;48.780;9.212;2022-11-11T03:20:29;9.20;84.20
19258;DHT22;9763;48.780;9.212;2022-11-11T03:24:29;9.20;84.00
19258;DHT22;9763;48.780;9.212;2022-11-11T03:28:25;9.10;83.70
19258;DHT22;9763;48.780;9.212;2022-11-11T03:32:09;9.10;83.50
19258;DHT22;9763;48.780;9.212;2022-11-11T03:35:51;9.10;83.40
19258;DHT22;9763;48.780;9.212;2022-11-11T03:39:33;9.00;83.30
19258;DHT22;9763;48.780;9.212;2022-11-11T03:43:15;9.00;83.40
19258;DHT22;9763;48.780;9.212;2022-11-11T03:46:59;9.00;83.70
19258;DHT22;9763;48.780;9.212;2022-11-11T03:50:42;9.00;83.60
19258;DHT22;9763;48.780;9.212;2022-11-11T03:54:27;9.00;83.50
19258;DHT22;9763;48.780;9.212;2022-11-11T03:58:09;8.90;83.50
19258;DHT22;9763;48.780;9.212;2022-11-11T04:01:51;8.90;83.50
19258;DHT22;9763;48.780;9.212;2022-11-11T04:05:52;8.90;83.50
19258;DHT22;9763;48.780;9.212;2022-11-11T04:09:51;8.80;83.20
19258;DHT22;9763;48.780;9.212;2022-11-11T04:13:52;8.80;83.10
19258;DHT22;9763;48.780;9.212;2022-11-11T04:17:55;8.80;83.10
19258;DHT22;9763;48.780;9.212;2022-11-11T04:21:45;8.70;83.20
19258;DHT22;9763;48.780;9.212;2022-11-11T04:25:26;8.70;83.40
19258;DHT22;9763;48.780;9.212;2022-11-11T04:29:26;8.70;83.80
19258;DHT22;9763;48.780;9.212;2022-11-11T04:33:09;8.70;84.10
19258;DHT22;9763;48.780;9.212;2022-11-11T04:36:52;8.70;84.20
19258;DHT22;9763;48.780;9.212;2022-11-11T04:40:34;8.70;84.10
19258;DHT22;9763;48.780;9.212;2022-11-11T04:44:34;8.70;84.10
19258;DHT22;9763;48.780;9.212;2022-11-11T04:48:42;8.60;83.60
19258;DHT22;9763;48.780;9.212;2022-11-11T04:52:26;8.70;83.50
19258;DHT22;9763;48.780;9.212;2022-11-11T04:56:10;8.60;83.30
19258;DHT22;9763;48.780;9.212;2022-11-11T05:00:11;8.60;83.30
19258;DHT22;9763;48.780;9.212;2022-11-11T05:03:55;8.60;83.10
19258;DHT22;9763;48.780;9.212;2022-11-11T05:07:37;8.60;82.80
19258;DHT22;9763;48.780;9.212;2022-11-11T05:11:37;8.60;82.60
19258;DHT22;9763;48.780;9.212;2022-11-11T05:15:19;8.50;82.60
19258;DHT22;9763;48.780;9.212;2022-11-11T05:19:19;8.60;82.80
19258;DHT22;9763;48.780;9.212;2022-11-11T05:23:20;8.50;82.80
19258;DHT22;9763;48.780;9.212;2022-11-11T05:27:23;8.50;82.90
19258;DHT22;9763;48.780;9.212;2022-11-11T05:31:06;8.40;82.90
19258;DHT22;9763;48.780;9.212;2022-11-11T05:34:48;8.40;82.80
19258;DHT22;9763;48.780;9.212;2022-11-11T05:38:32;8.40;82.80
19258;DHT22;9763;48.780;9.212;2022-11-11T05:42:14;8.40;82.90
19258;DHT22;9763;48.780;9.212;2022-11-11T05:45:56;8.40;83.30
19258;DHT22;9763;48.780;9.212;2022-11-11T05:49:38;8.40;83.60
19258;DHT22;9763;48.780;9.212;2022-11-11T05:53:20;8.30;83.50
19258;DHT22;9763;48.780;9.212;2022-11-11T05:57:06;8.40;83.60
19258;DHT22;9763;48.780;9.212;2022-11-11T06:00:48;8.30;83.30
19258;DHT22;9763;48.780;9.212;2022-11-11T06:04:30;8.30;83.50
19258;DHT22;9763;48.780;9.212;2022-11-11T06:08:14;8.30;83.80
19258;DHT22;9763;48.780;9.212;2022-11-11T06:11:56;8.30;83.90
19258;DHT22;9763;48.780;9.212;2022-11-11T06:15:39;8.30;84.00
19258;DHT22;9763;48.780;9.212;2022-11-11T06:19:21;8.30;84.00
19258;DHT22;9763;48.780;9.212;2022-11-11T06:23:04;8.30;83.90
19258;DHT22;9763;48.780;9.212;2022-11-11T06:26:46;8.30;83.90
19258;DHT22;9763;48.780;9.212;2022-11-11T06:30:28;8.30;83.70
19258;DHT22;9763;48.780;9.212;2022-11-11T06:34:31;8.30;83.80
19258;DHT22;9763;48.780;9.212;2022-11-11T06:38:13;8.30;83.70
19258;DHT22;9763;48.780;9.212;2022-11-11T06:41:55;8.30;83.80
19258;DHT22;9763;48.780;9.212;2022-11-11T06:45:37;8.30;83.90
19258;DHT22;9763;48.780;9.212;2022-11-11T06:49:20;8.30;84.00
19258;DHT22;9763;48.780;9.212;2022-11-11T06:53:08;8.30;84.20
19258;DHT22;9763;48.780;9.212;2022-11-11T06:56:50;8.30;84.40
19258;DHT22;9763;48.780;9.212;2022-11-11T07:00:33;8.40;85.10
19258;DHT22;9763;48.780;9.212;2022-11-11T07:04:16;8.40;85.60
19258;DHT22;9763;48.780;9.212;2022-11-11T07:08:00;8.40;86.90
19258;DHT22;9763;48.780;9.212;2022-11-11T07:11:45;8.50;86.60
19258;DHT22;9763;48.780;9.212;2022-11-11T07:15:27;8.50;86.70
19258;DHT22;9763;48.780;9.212;2022-11-11T07:19:09;8.60;87.10
19258;DHT22;9763;48.780;9.212;2022-11-11T07:22:52;8.70;87.30
19258;DHT22;9763;48.780;9.212;2022-11-11T07:26:34;8.70;87.80
19258;DHT22;9763;48.780;9.212;2022-11-11T07:30:18;8.80;88.50
19258;DHT22;9763;48.780;9.212;2022-11-11T07:34:00;8.90;88.90
19258;DHT22;9763;48.780;9.212;2022-11-11T07:37:42;8.90;89.40
19258;DHT22;9763;48.780;9.212;2022-11-11T07:41:25;9.00;90.00
19258;DHT22;9763;48.780;9.212;2022-11-11T07:45:09;9.10;90.20
19258;DHT22;9763;48.780;9.212;2022-11-11T07:48:54;9.20;90.30
19258;DHT22;9763;48.780;9.212;2022-11-11T07:52:36;9.30;90.50
19258;DHT22;9763;48.780;9.212;2022-11-11T07:56:19;9.40;90.80
19258;DHT22;9763;48.780;9.212;2022-11-11T08:00:03;9.40;91.00
19258;DHT22;9763;48.780;9.212;2022-11-11T08:03:46;9.50;91.40
19258;DHT22;9763;48.780;9.212;2022-11-11T08:07:34;9.60;91.70
19258;DHT22;9763;48.780;9.212;2022-11-11T08:11:17;9.80;91.70
19258;DHT22;9763;48.780;9.212;2022-11-11T08:15:19;9.80;91.70
19258;DHT22;9763;48.780;9.212;2022-11-11T08:19:01;10.00;91.10
19258;DHT22;9763;48.780;9.212;2022-11-11T08:22:45;10.00;91.30
19258;DHT22;9763;48.780;9.212;2022-11-11T08:26:48;10.10;91.60
19258;DHT22;9763;48.780;9.212;2022-11-11T08:30:31;10.20;91.70
19258;DHT22;9763;48.780;9.212;2022-11-11T08:34:13;10.30;91.70
19258;DHT22;9763;48.780;9.212;2022-11-11T08:38:00;10.40;91.70
19258;DHT22;9763;48.780;9.212;2022-11-11T08:41:42;10.40;91.10
19258;DHT22;9763;48.780;9.212;2022-11-11T08:45:25;10.40;91.30
19258;DHT22;9763;48.780;9.212;2022-11-11T08:49:07;10.50;91.30
19258;DHT22;9763;48.780;9.212;2022-11-11T08:52:51;10.50;91.10
19258;DHT22;9763;48.780;9.212;2022-11-11T08:56:35;10.50;90.90
19258;DHT22;9763;48.780;9.212;2022-11-11T09:00:17;10.60;90.80
19258;DHT22;9763;48.780;9.212;2022-11-11T09:03:59;10.60;90.80
19258;DHT22;9763;48.780;9.212;2022-11-11T09:08:03;10.60;91.00
19258;DHT22;9763;48.780;9.212;2022-11-11T09:11:48;10.60;90.60
19258;DHT22;9763;48.780;9.212;2022-11-11T09:15:31;10.60;90.20
19258;DHT22;9763;48.780;9.212;2022-11-11T09:19:13;10.60;90.20
19258;DHT22;9763;48.780;9.212;2022-11-11T09:22:56;10.60;90.30
19258;DHT22;9763;48.780;9.212;2022-11-11T09:26:38;10.60;90.40
19258;DHT22;9763;48.780;9.212;2022-11-11T09:30:21;10.60;90.90
19258;DHT22;9763;48.780;9.212;2022-11-11T09:34:04;10.70;91.10
19258;DHT22;9763;48.780;9.212;2022-11-11T09:37:52;10.80;91.60
19258;DHT22;9763;48.780;9.212;2022-11-11T09:41:44;10.80;91.50
19258;DHT22;9763;48.780;9.212;2022-11-11T09:45:48;10.90;91.70
19258;DHT22;9763;48.780;9.212;2022-11-11T09:49:58;11.00;91.90
19258;DHT22;9763;48.780;9.212;2022-11-11T09:53:48;11.10;91.80
19258;DHT22;9763;48.780;9.212;2022-11-11T09:57:36;11.20;92.40
19258;DHT22;9763;48.780;9.212;2022-11-11T10:01:25;11.30;93.50
19258;DHT22;9763;48.780;9.212;2022-11-11T10:05:13;11.40;94.00
19258;DHT22;9763;48.780;9.212;2022-11-11T10:08:58;11.60;94.60
19258;DHT22;9763;48.780;9.212;2022-11-11T10:12:46;11.80;95.10
19258;DHT22;9763;48.780;9.212;2022-11-11T10:16:39;11.90;95.50
19258;DHT22;9763;48.780;9.212;2022-11-11T10:20:31;12.10;96.40
19258;DHT22;9763;48.780;9.212;2022-11-11T10:24:27;12.40;99.00
19258;DHT22;9763;48.780;9.212;2022-11-11T10:28:23;12.90;99.90
19258;DHT22;9763;48.780;9.212;2022-11-11T10:32:15;13.40;99.90
19258;DHT22;9763;48.780;9.212;2022-11-11T10:36:02;13.90;99.90
19258;DHT22;9763;48.780;9.212;2022-11-11T10:39:59;14.50;99.90
19258;DHT22;9763;48.780;9.212;2022-11-11T10:43:48;15.20;99.90
19258;DHT22;9763;48.780;9.212;2022-11-11T10:47:41;16.00;99.90
19258;DHT22;9763;48.780;9.212;2022-11-11T10:51:29;17.00;99.90
19258;DHT22;9763;48.780;9.212;2022-11-11T10:55:21;17.80;99.90
19258;DHT22;9763;48.780;9.212;2022-11-11T10:59:13;18.50;99.80
19258;DHT22;9763;48.780;9.212;2022-11-11T11:03:07;18.90;96.00
19258;DHT22;9763;48.780;9.212;2022-11-11T11:06:54;19.10;91.90
19258;DHT22;9763;48.780;9.212;2022-11-11T11:10:42;19.00;90.30
19258;DHT22;9763;48.780;9.212;2022-11-11T11:14:32;18.80;87.90
19258;DHT22;9763;48.780;9.212;2022-11-11T11:18:19;18.50;85.80
19258;DHT22;9763;48.780;9.212;2022-11-11T11:22:03;18.20;84.90
19258;DHT22;9763;48.780;9.212;2022-11-11T11:25:51;17.90;84.30
19258;DHT22;9763;48.780;9.212;2022-11-11T11:29:36;17.50;83.40
19258;DHT22;9763;48.780;9.212;2022-11-11T11:33:23;17.20;84.30
19258;DHT22;9763;48.780;9.212;2022-11-11T11:37:05;16.90;84.40
19258;DHT22;9763;48.780;9.212;2022-11-11T11:40:49;16.60;85.00
19258;DHT22;9763;48.780;9.212;2022-11-11T11:44:33;16.40;85.30
19258;DHT22;9763;48.780;9.212;2022-11-11T11:48:33;16.20;85.50
19258;DHT22;9763;48.780;9.212;2022-11-11T11:52:31;15.90;84.80
19258;DHT22;9763;48.780;9.212;2022-11-11T11:56:31;15.70;84.80
19258;DHT22;9763;48.780;9.212;2022-11-11T12:00:20;15.50;85.20
19258;DHT22;9763;48.780;9.212;2022-11-11T12:08:45;15.20;86.40
19258;DHT22;9763;48.780;9.212;2022-11-11T12:12:42;15.10;88.50
19258;DHT22;9763;48.780;9.212;2022-11-11T12:16:39;15.00;90.10
19258;DHT22;9763;48.780;9.212;2022-11-11T12:20:30;15.00;90.50
19258;DHT22;9763;48.780;9.212;2022-11-11T12:24:37;15.00;91.10
19258;DHT22;9763;48.780;9.212;2022-11-11T12:28:47;15.00;91.50
19258;DHT22;9763;48.780;9.212;2022-11-11T12:32:54;15.00;92.10
19258;DHT22;9763;48.780;9.212;2022-11-11T12:37:08;15.10;92.50
19258;DHT22;9763;48.780;9.212;2022-11-11T12:41:06;15.10;92.50
19258;DHT22;9763;48.780;9.212;2022-11-11T12:45:02;15.20;92.60
19258;DHT22;9763;48.780;9.212;2022-11-11T12:49:02;15.20;93.10
19258;DHT22;9763;48.780;9.212;2022-11-11T12:53:06;15.20;92.80
19258;DHT22;9763;48.780;9.212;2022-11-11T12:57:01;15.30;92.90
19258;DHT22;9763;48.780;9.212;2022-11-11T13:00:57;15.30;93.00
19258;DHT22;9763;48.780;9.212;2022-11-11T13:04:55;15.30;93.00
19258;DHT22;9763;48.780;9.212;2022-11-11T13:09:04;15.40;92.80
19258;DHT22;9763;48.780;9.212;2022-11-11T13:13:26;15.40;92.30
19258;DHT22;9763;48.780;9.212;2022-11-11T13:17:16;15.40;92.30
19258;DHT22;9763;48.780;9.212;2022-11-11T13:21:00;15.40;93.00
19258;DHT22;9763;48.780;9.212;2022-11-11T13:24:47;15.40;92.90
19258;DHT22;9763;48.780;9.212;2022-11-11T13:28:37;15.40;93.20
19258;DHT22;9763;48.780;9.212;2022-11-11T13:32:27;15.40;93.30
19258;DHT22;9763;48.780;9.212;2022-11-11T13:36:15;15.50;93.40
19258;DHT22;9763;48.780;9.212;2022-11-11T13:40:03;15.50;93.30
19258;DHT22;9763;48.780;9.212;2022-11-11T13:43:51;15.60;93.20
19258;DHT22;9763;48.780;9.212;2022-11-11T13:47:37;15.60;93.30
19258;DHT22;9763;48.780;9.212;2022-11-11T13:51:29;15.60;93.10
19258;DHT22;9763;48.780;9.212;2022-11-11T13:55:27;15.60;92.80
19258;DHT22;9763;48.780;9.212;2022-11-11T13:59:20;15.70;92.20
19258;DHT22;9763;48.780;9.212;2022-11-11T14:03:28;15.60;92.10
19258;DHT22;9763;48.780;9.212;2022-11-11T14:07:48;15.60;91.70
19258;DHT22;9763;48.780;9.212;2022-11-11T14:11:35;15.60;91.60
19258;DHT22;9763;48.780;9.212;2022-11-11T14:15:35;15.60;92.00
19258;DHT22;9763;48.780;9.212;2022-11-11T14:19:30;15.50;91.30
19258;DHT22;9763;48.780;9.212;2022-11-11T14:23:25;15.50;91.40
19258;DHT22;9763;48.780;9.212;2022-11-11T14:27:22;15.50;91.20
19258;DHT22;9763;48.780;9.212;2022-11-11T14:35:59;15.40;90.70
19258;DHT22;9763;48.780;9.212;2022-11-11T14:39:51;15.30;91.40
19258;DHT22;9763;48.780;9.212;2022-11-11T14:43:38;15.30;91.40
19258;DHT22;9763;48.780;9.212;2022-11-11T14:47:24;15.30;91.30
19258;DHT22;9763;48.780;9.212;2022-11-11T14:51:41;15.30;91.10
19258;DHT22;9763;48.780;9.212;2022-11-11T14:55:28;15.20;90.30
19258;DHT22;9763;48.780;9.212;2022-11-11T14:59:16;15.10;90.40
19258;DHT22;9763;48.780;9.212;2022-11-11T15:03:07;15.10;90.10
19258;DHT22;9763;48.780;9.212;2022-11-11T15:06:55;15.00;89.70
19258;DHT22;9763;48.780;9.212;2022-11-11T15:10:56;14.90;89.20
19258;DHT22;9763;48.780;9.212;2022-11-11T15:14:50;14.80;88.00
19258;DHT22;9763;48.780;9.212;2022-11-11T15:19:00;14.70;88.20
19258;DHT22;9763;48.780;9.212;2022-11-11T15:23:01;14.60;87.70
19258;DHT22;9763;48.780;9.212;2022-11-11T15:26:59;14.50;87.60
19258;DHT22;9763;48.780;9.212;2022-11-11T15:31:00;14.40;87.40
19258;DHT22;9763;48.780;9.212;2022-11-11T15:34:55;14.20;86.90
19258;DHT22;9763;48.780;9.212;2022-11-11T15:38:45;14.30;87.50
19258;DHT22;9763;48.780;9.212;2022-11-11T15:42:30;14.00;87.50
19258;DHT22;9763;48.780;9.212;2022-11-11T15:46:23;13.90;87.20
19258;DHT22;9763;48.780;9.212;2022-11-11T15:50:16;13.80;86.80
19258;DHT22;9763;48.780;9.212;2022-11-11T15:54:09;13.70;86.50
19258;DHT22;9763;48.780;9.212;2022-11-11T15:58:08;13.60;86.40
19258;DHT22;9763;48.780;9.212;2022-11-11T16:01:53;13.50;86.50
19258;DHT22;9763;48.780;9.212;2022-11-11T16:05:35;13.40;86.80
19258;DHT22;9763;48.780;9.212;2022-11-11T16:09:21;13.30;87.10
19258;DHT22;9763;48.780;9.212;2022-11-11T16:13:11;13.20;87.00
19258;DHT22;9763;48.780;9.212;2022-11-11T16:16:59;13.20;87.00
19258;DHT22;9763;48.780;9.212;2022-11-11T16:20:47;13.10;86.90
19258;DHT22;9763;48.780;9.212;2022-11-11T16:24:34;13.00;86.80
19258;DHT22;9763;48.780;9.212;2022-11-11T16:28:20;13.00;86.90
19258;DHT22;9763;48.780;9.212;2022-11-11T16:32:30;12.90;86.90
19258;DHT22;9763;48.780;9.212;2022-11-11T16:36:13;12.80;86.20
19258;DHT22;9763;48.780;9.212;2022-11-11T16:39:55;12.80;86.60
19258;DHT22;9763;48.780;9.212;2022-11-11T16:43:58;12.70;86.80
19258;DHT22;9763;48.780;9.212;2022-11-11T16:47:47;12.60;87.10
19258;DHT22;9763;48.780;9.212;2022-11-11T16:51:39;12.50;87.10
19258;DHT22;9763;48.780;9.212;2022-11-11T16:55:26;12.50;87.00
19258;DHT22;9763;48.780;9.212;2022-11-11T16:59:14;12.50;87.30
19258;DHT22;9763;48.780;9.212;2022-11-11T17:03:10;12.40;87.40
19258;DHT22;9763;48.780;9.212;2022-11-11T17:06:55;12.40;87.30
19258;DHT22;9763;48.780;9.212;2022-11-11T17:10:39;12.30;87.50
19258;DHT22;9763;48.780;9.212;2022-11-11T17:14:22;12.30;87.80
19258;DHT22;9763;48.780;9.212;2022-11-11T17:18:04;12.30;87.70
19258;DHT22;9763;48.780;9.212;2022-11-11T17:21:49;12.30;87.50
19258;DHT22;9763;48.780;9.212;2022-11-11T17:25:31;12.30;87.10
19258;DHT22;9763;48.780;9.212;2022-11-11T17:29:14;12.20;87.00
19258;DHT22;9763;48.780;9.212;2022-11-11T17:32:56;12.20;87.00
19258;DHT22;9763;48.780;9.212;2022-11-11T17:36:38;12.20;86.90
19258;DHT22;9763;48.780;9.212;2022-11-11T17:40:22;12.10;86.60
19258;DHT22;9763;48.780;9.212;2022-11-11T17:44:04;12.00;86.60
19258;DHT22;9763;48.780;9.212;2022-11-11T17:47:46;12.00;86.70
19258;DHT22;9763;48.780;9.212;2022-11-11T17:51:28;12.00;86.80
19258;DHT22;9763;48.780;9.212;2022-11-11T17:55:10;12.00;86.70
19258;DHT22;9763;48.780;9.212;2022-11-11T17:58:54;11.90;86.30
19258;DHT22;9763;48.780;9.212;2022-11-11T18:02:36;11.90;86.10
19258;DHT22;9763;48.780;9.212;2022-11-11T18:06:18;11.80;86.20
19258;DHT22;9763;48.780;9.212;2022-11-11T18:10:00;11.80;86.20
19258;DHT22;9763;48.780;9.212;2022-11-11T18:13:42;11.80;86.40
19258;DHT22;9763;48.780;9.212;2022-11-11T18:17:25;11.80;86.70
19258;DHT22;9763;48.780;9.212;2022-11-11T18:21:08;11.70;86.70
19258;DHT22;9763;48.780;9.212;2022-11-11T18:24:51;11.70;87.10
19258;DHT22;9763;48.780;9.212;2022-11-11T18:28:34;11.70;86.80
19258;DHT22;9763;48.780;9.212;2022-11-11T18:32:18;11.70;86.70
19258;DHT22;9763;48.780;9.212;2022-11-11T18:36:08;11.70;86.40
19258;DHT22;9763;48.780;9.212;2022-11-11T18:39:51;11.60;86.40
19258;DHT22;9763;48.780;9.212;2022-11-11T18:43:34;11.50;86.70
19258;DHT22;9763;48.780;9.212;2022-11-11T18:47:20;11.50;86.80
19258;DHT22;9763;48.780;9.212;2022-11-11T18:51:02;11.50;86.70
19258;DHT22;9763;48.780;9.212;2022-11-11T18:54:46;11.50;86.60
19258;DHT22;9763;48.780;9.212;2022-11-11T18:58:32;11.50;86.60
19258;DHT22;9763;48.780;9.212;2022-11-11T19:02:45;11.40;86.80
19258;DHT22;9763;48.780;9.212;2022-11-11T19:06:28;11.40;86.60
19258;DHT22;9763;48.780;9.212;2022-11-11T19:10:13;11.40;87.00
19258;DHT22;9763;48.780;9.212;2022-11-11T19:13:55;11.40;87.00
19258;DHT22;9763;48.780;9.212;2022-11-11T19:17:37;11.30;86.80
19258;DHT22;9763;48.780;9.212;2022-11-11T19:21:21;11.30;86.60
19258;DHT22;9763;48.780;9.212;2022-11-11T19:25:06;11.30;86.40
19258;DHT22;9763;48.780;9.212;2022-11-11T19:28:51;11.30;86.50
19258;DHT22;9763;48.780;9.212;2022-11-11T19:32:33;11.30;86.40
19258;DHT22;9763;48.780;9.212;2022-11-11T19:36:17;11.20;86.30
19258;DHT22;9763;48.780;9.212;2022-11-11T19:40:01;11.20;86.20
19258;DHT22;9763;48.780;9.212;2022-11-11T19:43:45;11.20;86.20
19258;DHT22;9763;48.780;9.212;2022-11-11T19:47:31;11.20;86.20
19258;DHT22;9763;48.780;9.212;2022-11-11T19:51:15;11.20;86.80
19258;DHT22;9763;48.780;9.212;2022-11-11T19:54:59;11.20;86.10
19258;DHT22;9763;48.780;9.212;2022-11-11T19:58:41;11.10;85.90
19258;DHT22;9763;48.780;9.212;2022-11-11T20:02:24;11.10;85.80
19258;DHT22;9763;48.780;9.212;2022-11-11T20:06:18;11.10;85.90
19258;DHT22;9763;48.780;9.212;2022-11-11T20:10:03;11.00;85.70
19258;DHT22;9763;48.780;9.212;2022-11-11T20:13:46;11.00;85.90
19258;DHT22;9763;48.780;9.212;2022-11-11T20:17:28;11.00;85.90
19258;DHT22;9763;48.780;9.212;2022-11-11T20:21:11;11.00;85.70
19258;DHT22;9763;48.780;9.212;2022-11-11T20:24:54;10.90;85.40
19258;DHT22;9763;48.780;9.212;2022-11-11T20:28:36;10.90;85.60
19258;DHT22;9763;48.780;9.212;2022-11-11T20:32:19;10.90;85.70
19258;DHT22;9763;48.780;9.212;2022-11-11T20:36:02;10.80;85.50
19258;DHT22;9763;48.780;9.212;2022-11-11T20:39:49;10.80;85.60
19258;DHT22;9763;48.780;9.212;2022-11-11T20:43:41;10.80;85.60
19258;DHT22;9763;48.780;9.212;2022-11-11T20:47:24;10.70;85.40
19258;DHT22;9763;48.780;9.212;2022-11-11T20:51:15;10.70;85.40
19258;DHT22;9763;48.780;9.212;2022-11-11T20:55:00;10.70;85.40
19258;DHT22;9763;48.780;9.212;2022-11-11T20:58:42;10.70;85.50
19258;DHT22;9763;48.780;9.212;2022-11-11T21:02:24;10.70;85.60
19258;DHT22;9763;48.780;9.212;2022-11-11T21:06:09;10.60;85.50
19258;DHT22;9763;48.780;9.212;2022-11-11T21:09:52;10.60;85.60
19258;DHT22;9763;48.780;9.212;2022-11-11T21:13:36;10.60;85.60
19258;DHT22;9763;48.780;9.212;2022-11-11T21:17:18;10.60;85.50
19258;DHT22;9763;48.780;9.212;2022-11-11T21:21:05;10.60;85.50
19258;DHT22;9763;48.780;9.212;2022-11-11T21:24:47;10.60;85.30
19258;DHT22;9763;48.780;9.212;2022-11-11T21:28:31;10.60;85.10
19258;DHT22;9763;48.780;9.212;2022-11-11T21:32:15;10.60;85.00
19258;DHT22;9763;48.780;9.212;2022-11-11T21:36:02;10.50;85.10
19258;DHT22;9763;48.780;9.212;2022-11-11T21:39:45;10.50;85.50
19258;DHT22;9763;48.780;9.212;2022-11-11T21:43:28;10.50;85.60
19258;DHT22;9763;48.780;9.212;2022-11-11T21:47:10;10.40;85.50
19258;DHT22;9763;48.780;9.212;2022-11-11T21:50:59;10.40;85.60
19258;DHT22;9763;48.780;9.212;2022-11-11T21:54:43;10.30;85.10
19258;DHT22;9763;48.780;9.212;2022-11-11T21:58:25;10.30;85.20
19258;DHT22;9763;48.780;9.212;2022-11-11T22:02:08;10.30;85.40
19258;DHT22;9763;48.780;9.212;2022-11-11T22:05:52;10.30;85.50
19258;DHT22;9763;48.780;9.212;2022-11-11T22:09:34;10.30;85.50
19258;DHT22;9763;48.780;9.212;2022-11-11T22:13:17;10.30;85.40
19258;DHT22;9763;48.780;9.212;2022-11-11T22:16:59;10.30;85.60
19258;DHT22;9763;48.780;9.212;2022-11-11T22:20:41;10.20;85.50
19258;DHT22;9763;48.780;9.212;2022-11-11T22:24:25;10.20;85.60
19258;DHT22;9763;48.780;9.212;2022-11-11T22:28:07;10.20;85.60
19258;DHT22;9763;48.780;9.212;2022-11-11T22:31:50;10.20;85.50
19258;DHT22;9763;48.780;9.212;2022-11-11T22:35:32;10.20;85.40
19258;DHT22;9763;48.780;9.212;2022-11-11T22:39:14;10.20;85.30
19258;DHT22;9763;48.780;9.212;2022-11-11T22:42:58;10.20;85.10
19258;DHT22;9763;48.780;9.212;2022-11-11T22:46:40;10.20;84.90
19258;DHT22;9763;48.780;9.212;2022-11-11T22:50:22;10.20;84.90
19258;DHT22;9763;48.780;9.212;2022-11-11T22:54:08;10.20;84.90
19258;DHT22;9763;48.780;9.212;2022-11-11T22:58:00;10.10;84.80
19258;DHT22;9763;48.780;9.212;2022-11-11T23:01:42;10.10;84.60
19258;DHT22;9763;48.780;9.212;2022-11-11T23:05:24;10.10;84.50
19258;DHT22;9763;48.780;9.212;2022-11-11T23:09:08;10.10;84.50
19258;DHT22;9763;48.780;9.212;2022-11-11T23:12:51;10.10;84.50
19258;DHT22;9763;48.780;9.212;2022-11-11T23:16:39;10.00;84.30
19258;DHT22;9763;48.780;9.212;2022-11-11T23:20:21;10.00;84.20
19258;DHT22;9763;48.780;9.212;2022-11-11T23:24:04;10.00;84.20
19258;DHT22;9763;48.780;9.212;2022-11-11T23:27:47;10.00;84.20
19258;DHT22;9763;48.780;9.212;2022-11-11T23:31:31;9.90;85.40
19258;DHT22;9763;48.780;9.212;2022-11-11T23:35:14;9.90;85.40
19258;DHT22;9763;48.780;9.212;2022-11-11T23:38:57;9.90;85.30
19258;DHT22;9763;48.780;9.212;2022-11-11T23:42:39;9.80;85.10
19258;DHT22;9763;48.780;9.212;2022-11-11T23:46:21;9.80;85.00
19258;DHT22;9763;48.780;9.212;2022-11-11T23:50:04;9.70;85.00
19258;DHT22;9763;48.780;9.212;2022-11-11T23:53:48;9.70;85.00
19258;DHT22;9763;48.780;9.212;2022-11-11T23:57:29;9.70;85.00
